sensor_id;sensor_type;location;lat;lon;timestamp;temperature;humidity
53876;DHT22;39789;53.216;5.624;2024-01-30T00:01:28;6.00;99.90
53876;DHT22;39789;53.216;5.624;2024-01-30T00:03:53;5.10;99.90
53876;DHT22;39789;53.216;5.624;2024-01-30T00:06:19;6.10;99.90
53876;DHT22;39789;53.216;5.624;2024-01-30T00:08:46;6.70;99.90
53876;DHT22;39789;53.216;5.624;2024-01-30T00:11:14;5.00;99.90
53876;DHT22;39789;53.216;5.624;2024-01-30T00:13:40;5.90;99.90
53876;DHT22;39789;53.216;5.624;2024-01-30T00:16:06;6.30;99.90
53876;DHT22;39789;53.216;5.624;2024-01-30T00:18:32;6.00;99.90
53876;DHT22;39789;53.216;5.624;2024-01-30T00:20:57;5.00;99.90
53876;DHT22;39789;53.216;5.624;2024-01-30T00:23:23;7.10;99.90
53876;DHT22;39789;53.216;5.624;2024-01-30T00:25:50;7.00;99.90
53876;DHT22;39789;53.216;5.624;2024-01-30T00:28:16;7.10;99.90
53876;DHT22;39789;53.216;5.624;2024-01-30T00:30:41;5.00;99.90
53876;DHT22;39789;53.216;5.624;2024-01-30T00:33:07;5.40;99.90
53876;DHT22;39789;53.216;5.624;2024-01-30T00:35:33;6.00;99.90
53876;DHT22;39789;53.216;5.624;2024-01-30T00:37:59;6.20;99.90
53876;DHT22;39789;53.216;5.624;2024-01-30T00:40:24;6.50;99.90
53876;DHT22;39789;53.216;5.624;2024-01-30T00:42:50;5.80;99.90
53876;DHT22;39789;53.216;5.624;2024-01-30T00:45:16;6.10;99.90
53876;DHT22;39789;53.216;5.624;2024-01-30T00:47:42;5.90;99.90
53876;DHT22;39789;53.216;5.624;2024-01-30T00:50:08;6.30;99.90
53876;DHT22;39789;53.216;5.624;2024-01-30T00:52:35;4.80;99.90
53876;DHT22;39789;53.216;5.624;2024-01-30T00:55:01;5.30;99.90
53876;DHT22;39789;53.216;5.624;2024-01-30T00:57:27;6.10;99.90
53876;DHT22;39789;53.216;5.624;2024-01-30T00:59:52;5.90;99.90
53876;DHT22;39789;53.216;5.624;2024-01-30T01:02:18;6.20;99.90
53876;DHT22;39789;53.216;5.624;2024-01-30T01:04:44;6.30;99.90
53876;DHT22;39789;53.216;5.624;2024-01-30T01:07:10;6.50;99.90
53876;DHT22;39789;53.216;5.624;2024-01-30T01:09:36;6.20;99.90
53876;DHT22;39789;53.216;5.624;2024-01-30T01:12:03;6.80;99.90
53876;DHT22;39789;53.216;5.624;2024-01-30T01:14:28;4.90;99.90
53876;DHT22;39789;53.216;5.624;2024-01-30T01:16:54;6.90;99.90
53876;DHT22;39789;53.216;5.624;2024-01-30T01:19:20;6.20;99.90
53876;DHT22;39789;53.216;5.624;2024-01-30T01:21:46;6.40;99.90
53876;DHT22;39789;53.216;5.624;2024-01-30T01:24:11;7.00;99.90
53876;DHT22;39789;53.216;5.624;2024-01-30T01:26:37;6.90;99.90
53876;DHT22;39789;53.216;5.624;2024-01-30T01:29:02;6.70;99.90
53876;DHT22;39789;53.216;5.624;2024-01-30T01:31:38;6.40;99.90
53876;DHT22;39789;53.216;5.624;2024-01-30T01:34:12;5.30;99.90
53876;DHT22;39789;53.216;5.624;2024-01-30T01:36:39;7.30;99.90
53876;DHT22;39789;53.216;5.624;2024-01-30T01:39:05;5.90;99.90
53876;DHT22;39789;53.216;5.624;2024-01-30T01:41:31;6.20;99.90
53876;DHT22;39789;53.216;5.624;2024-01-30T01:44:00;6.70;99.90
53876;DHT22;39789;53.216;5.624;2024-01-30T01:46:32;6.10;99.90
53876;DHT22;39789;53.216;5.624;2024-01-30T01:48:58;6.90;99.90
53876;DHT22;39789;53.216;5.624;2024-01-30T01:51:27;6.00;99.90
53876;DHT22;39789;53.216;5.624;2024-01-30T01:53:57;5.60;99.90
53876;DHT22;39789;53.216;5.624;2024-01-30T01:56:23;6.30;99.90
53876;DHT22;39789;53.216;5.624;2024-01-30T01:58:50;5.70;99.90
53876;DHT22;39789;53.216;5.624;2024-01-30T02:01:18;6.40;99.90
53876;DHT22;39789;53.216;5.624;2024-01-30T02:03:46;6.80;99.90
53876;DHT22;39789;53.216;5.624;2024-01-30T02:06:15;5.80;99.90
53876;DHT22;39789;53.216;5.624;2024-01-30T02:08:41;5.90;99.90
53876;DHT22;39789;53.216;5.624;2024-01-30T02:11:07;7.10;99.90
53876;DHT22;39789;53.216;5.624;2024-01-30T02:13:34;7.30;99.90
53876;DHT22;39789;53.216;5.624;2024-01-30T02:16:00;5.80;99.90
53876;DHT22;39789;53.216;5.624;2024-01-30T02:18:26;7.50;99.90
53876;DHT22;39789;53.216;5.624;2024-01-30T02:20:53;5.80;99.90
53876;DHT22;39789;53.216;5.624;2024-01-30T02:23:20;5.90;99.90
53876;DHT22;39789;53.216;5.624;2024-01-30T02:25:45;6.30;99.90
53876;DHT22;39789;53.216;5.624;2024-01-30T02:28:15;5.90;99.90
53876;DHT22;39789;53.216;5.624;2024-01-30T02:30:43;7.50;99.90
53876;DHT22;39789;53.216;5.624;2024-01-30T02:33:08;7.80;99.90
53876;DHT22;39789;53.216;5.624;2024-01-30T02:35:34;7.40;99.90
53876;DHT22;39789;53.216;5.624;2024-01-30T02:38:00;6.90;99.90
53876;DHT22;39789;53.216;5.624;2024-01-30T02:40:26;7.00;99.90
53876;DHT22;39789;53.216;5.624;2024-01-30T02:42:52;6.00;99.90
53876;DHT22;39789;53.216;5.624;2024-01-30T02:45:18;7.40;99.90
53876;DHT22;39789;53.216;5.624;2024-01-30T02:47:43;6.00;99.90
53876;DHT22;39789;53.216;5.624;2024-01-30T02:50:09;6.20;99.90
53876;DHT22;39789;53.216;5.624;2024-01-30T02:52:35;6.90;99.90
53876;DHT22;39789;53.216;5.624;2024-01-30T02:55:01;7.50;99.90
53876;DHT22;39789;53.216;5.624;2024-01-30T02:57:28;7.20;99.90
53876;DHT22;39789;53.216;5.624;2024-01-30T02:59:54;7.60;99.90
53876;DHT22;39789;53.216;5.624;2024-01-30T03:02:19;7.30;99.90
53876;DHT22;39789;53.216;5.624;2024-01-30T03:04:45;7.80;99.90
53876;DHT22;39789;53.216;5.624;2024-01-30T03:07:11;7.50;99.90
53876;DHT22;39789;53.216;5.624;2024-01-30T03:09:37;6.70;99.90
53876;DHT22;39789;53.216;5.624;2024-01-30T03:12:03;6.20;99.90
53876;DHT22;39789;53.216;5.624;2024-01-30T03:14:31;5.70;99.90
53876;DHT22;39789;53.216;5.624;2024-01-30T03:16:57;6.70;99.90
53876;DHT22;39789;53.216;5.624;2024-01-30T03:19:23;7.60;99.90
53876;DHT22;39789;53.216;5.624;2024-01-30T03:21:50;7.00;99.90
53876;DHT22;39789;53.216;5.624;2024-01-30T03:24:16;7.40;99.90
53876;DHT22;39789;53.216;5.624;2024-01-30T03:26:43;7.40;99.90
53876;DHT22;39789;53.216;5.624;2024-01-30T03:29:08;7.20;99.90
53876;DHT22;39789;53.216;5.624;2024-01-30T03:31:34;6.80;99.90
53876;DHT22;39789;53.216;5.624;2024-01-30T03:34:00;7.60;99.90
53876;DHT22;39789;53.216;5.624;2024-01-30T03:36:26;7.10;99.90
53876;DHT22;39789;53.216;5.624;2024-01-30T03:38:52;7.10;99.90
53876;DHT22;39789;53.216;5.624;2024-01-30T03:41:17;7.00;99.90
53876;DHT22;39789;53.216;5.624;2024-01-30T03:43:43;7.50;99.90
53876;DHT22;39789;53.216;5.624;2024-01-30T03:46:09;5.70;99.90
53876;DHT22;39789;53.216;5.624;2024-01-30T03:48:34;6.70;99.90
53876;DHT22;39789;53.216;5.624;2024-01-30T03:51:00;7.00;99.90
53876;DHT22;39789;53.216;5.624;2024-01-30T03:53:26;6.60;99.90
53876;DHT22;39789;53.216;5.624;2024-01-30T03:55:51;7.00;99.90
53876;DHT22;39789;53.216;5.624;2024-01-30T03:58:17;6.80;99.90
53876;DHT22;39789;53.216;5.624;2024-01-30T04:00:43;6.50;99.90
53876;DHT22;39789;53.216;5.624;2024-01-30T04:03:08;7.50;99.90
53876;DHT22;39789;53.216;5.624;2024-01-30T04:05:34;7.10;99.90
53876;DHT22;39789;53.216;5.624;2024-01-30T04:07:59;6.60;99.90
53876;DHT22;39789;53.216;5.624;2024-01-30T04:10:25;6.10;99.90
53876;DHT22;39789;53.216;5.624;2024-01-30T04:12:51;6.10;99.90
53876;DHT22;39789;53.216;5.624;2024-01-30T04:15:17;7.50;99.90
53876;DHT22;39789;53.216;5.624;2024-01-30T04:17:44;7.30;99.90
53876;DHT22;39789;53.216;5.624;2024-01-30T04:20:16;7.60;99.90
53876;DHT22;39789;53.216;5.624;2024-01-30T04:22:45;7.50;99.90
53876;DHT22;39789;53.216;5.624;2024-01-30T04:25:12;7.20;99.90
53876;DHT22;39789;53.216;5.624;2024-01-30T04:27:38;7.70;99.90
53876;DHT22;39789;53.216;5.624;2024-01-30T04:30:04;6.30;99.90
53876;DHT22;39789;53.216;5.624;2024-01-30T04:32:30;6.30;99.90
53876;DHT22;39789;53.216;5.624;2024-01-30T04:34:56;7.50;99.90
53876;DHT22;39789;53.216;5.624;2024-01-30T04:37:21;7.50;99.90
53876;DHT22;39789;53.216;5.624;2024-01-30T04:39:47;6.50;99.90
53876;DHT22;39789;53.216;5.624;2024-01-30T04:42:12;7.70;99.90
53876;DHT22;39789;53.216;5.624;2024-01-30T04:44:38;7.50;99.90
53876;DHT22;39789;53.216;5.624;2024-01-30T04:47:04;7.20;99.90
53876;DHT22;39789;53.216;5.624;2024-01-30T04:49:31;6.50;99.90
53876;DHT22;39789;53.216;5.624;2024-01-30T04:51:57;7.50;99.90
53876;DHT22;39789;53.216;5.624;2024-01-30T04:54:24;7.80;99.90
53876;DHT22;39789;53.216;5.624;2024-01-30T04:56:49;7.60;99.90
53876;DHT22;39789;53.216;5.624;2024-01-30T04:59:15;7.80;99.90
53876;DHT22;39789;53.216;5.624;2024-01-30T05:01:41;7.40;99.90
53876;DHT22;39789;53.216;5.624;2024-01-30T05:04:10;6.70;99.90
53876;DHT22;39789;53.216;5.624;2024-01-30T05:06:36;7.80;99.90
53876;DHT22;39789;53.216;5.624;2024-01-30T05:09:02;7.70;99.90
53876;DHT22;39789;53.216;5.624;2024-01-30T05:11:30;6.70;99.90
53876;DHT22;39789;53.216;5.624;2024-01-30T05:13:55;7.90;99.90
53876;DHT22;39789;53.216;5.624;2024-01-30T05:16:21;7.60;99.90
53876;DHT22;39789;53.216;5.624;2024-01-30T05:18:47;7.50;99.90
53876;DHT22;39789;53.216;5.624;2024-01-30T05:21:12;7.40;99.90
53876;DHT22;39789;53.216;5.624;2024-01-30T05:23:38;6.80;99.90
53876;DHT22;39789;53.216;5.624;2024-01-30T05:26:04;7.30;99.90
53876;DHT22;39789;53.216;5.624;2024-01-30T05:28:30;8.30;99.90
53876;DHT22;39789;53.216;5.624;2024-01-30T05:30:56;7.70;99.90
53876;DHT22;39789;53.216;5.624;2024-01-30T05:33:22;7.90;99.90
53876;DHT22;39789;53.216;5.624;2024-01-30T05:35:47;7.60;99.90
53876;DHT22;39789;53.216;5.624;2024-01-30T05:38:15;8.20;99.90
53876;DHT22;39789;53.216;5.624;2024-01-30T05:40:41;8.60;99.90
53876;DHT22;39789;53.216;5.624;2024-01-30T05:43:06;7.50;99.90
53876;DHT22;39789;53.216;5.624;2024-01-30T05:45:33;8.50;99.90
53876;DHT22;39789;53.216;5.624;2024-01-30T05:48:00;8.30;99.90
53876;DHT22;39789;53.216;5.624;2024-01-30T05:50:26;8.70;99.90
53876;DHT22;39789;53.216;5.624;2024-01-30T05:52:52;8.40;99.90
53876;DHT22;39789;53.216;5.624;2024-01-30T05:55:18;8.70;99.90
53876;DHT22;39789;53.216;5.624;2024-01-30T05:57:44;8.40;99.90
53876;DHT22;39789;53.216;5.624;2024-01-30T06:00:10;8.40;99.90
53876;DHT22;39789;53.216;5.624;2024-01-30T06:02:36;7.60;99.90
53876;DHT22;39789;53.216;5.624;2024-01-30T06:05:02;8.40;99.90
53876;DHT22;39789;53.216;5.624;2024-01-30T06:07:28;7.70;99.90
53876;DHT22;39789;53.216;5.624;2024-01-30T06:09:53;7.70;99.90
53876;DHT22;39789;53.216;5.624;2024-01-30T06:12:19;7.90;99.90
53876;DHT22;39789;53.216;5.624;2024-01-30T06:14:45;8.70;99.90
53876;DHT22;39789;53.216;5.624;2024-01-30T06:17:11;7.80;99.90
53876;DHT22;39789;53.216;5.624;2024-01-30T06:19:38;7.80;99.90
53876;DHT22;39789;53.216;5.624;2024-01-30T06:22:04;7.80;99.90
53876;DHT22;39789;53.216;5.624;2024-01-30T06:24:30;7.90;99.90
53876;DHT22;39789;53.216;5.624;2024-01-30T06:26:56;8.00;99.90
53876;DHT22;39789;53.216;5.624;2024-01-30T06:29:22;7.90;99.90
53876;DHT22;39789;53.216;5.624;2024-01-30T06:31:50;8.00;99.90
53876;DHT22;39789;53.216;5.624;2024-01-30T06:34:16;7.90;99.90
53876;DHT22;39789;53.216;5.624;2024-01-30T06:36:41;8.60;99.90
53876;DHT22;39789;53.216;5.624;2024-01-30T06:39:07;8.00;99.90
53876;DHT22;39789;53.216;5.624;2024-01-30T06:41:33;8.60;99.90
53876;DHT22;39789;53.216;5.624;2024-01-30T06:43:59;8.50;99.90
53876;DHT22;39789;53.216;5.624;2024-01-30T06:46:24;8.00;99.90
53876;DHT22;39789;53.216;5.624;2024-01-30T06:48:53;8.30;99.90
53876;DHT22;39789;53.216;5.624;2024-01-30T06:51:19;7.90;99.90
53876;DHT22;39789;53.216;5.624;2024-01-30T06:53:44;8.40;99.90
53876;DHT22;39789;53.216;5.624;2024-01-30T06:56:10;8.90;99.90
53876;DHT22;39789;53.216;5.624;2024-01-30T06:58:36;8.10;99.90
53876;DHT22;39789;53.216;5.624;2024-01-30T07:01:02;8.80;99.90
53876;DHT22;39789;53.216;5.624;2024-01-30T07:03:27;8.00;99.90
53876;DHT22;39789;53.216;5.624;2024-01-30T07:05:53;8.50;99.90
53876;DHT22;39789;53.216;5.624;2024-01-30T07:08:19;8.20;99.90
53876;DHT22;39789;53.216;5.624;2024-01-30T07:10:44;8.60;99.90
53876;DHT22;39789;53.216;5.624;2024-01-30T07:13:11;8.50;99.90
53876;DHT22;39789;53.216;5.624;2024-01-30T07:15:37;9.00;99.90
53876;DHT22;39789;53.216;5.624;2024-01-30T07:18:03;8.00;99.90
53876;DHT22;39789;53.216;5.624;2024-01-30T07:20:30;8.00;99.90
53876;DHT22;39789;53.216;5.624;2024-01-30T07:22:58;8.80;99.90
53876;DHT22;39789;53.216;5.624;2024-01-30T07:25:23;8.50;99.90
53876;DHT22;39789;53.216;5.624;2024-01-30T07:27:53;8.70;99.90
53876;DHT22;39789;53.216;5.624;2024-01-30T07:30:19;8.50;99.90
53876;DHT22;39789;53.216;5.624;2024-01-30T07:32:46;8.50;99.90
53876;DHT22;39789;53.216;5.624;2024-01-30T07:35:12;8.00;99.90
53876;DHT22;39789;53.216;5.624;2024-01-30T07:37:40;8.70;99.90
53876;DHT22;39789;53.216;5.624;2024-01-30T07:40:06;8.80;99.90
53876;DHT22;39789;53.216;5.624;2024-01-30T07:42:32;7.90;99.90
53876;DHT22;39789;53.216;5.624;2024-01-30T07:44:59;8.60;99.90
53876;DHT22;39789;53.216;5.624;2024-01-30T07:47:25;8.80;99.90
53876;DHT22;39789;53.216;5.624;2024-01-30T07:49:51;8.30;99.90
53876;DHT22;39789;53.216;5.624;2024-01-30T07:52:16;8.60;99.90
53876;DHT22;39789;53.216;5.624;2024-01-30T07:54:42;8.10;99.90
53876;DHT22;39789;53.216;5.624;2024-01-30T07:57:08;8.50;99.90
53876;DHT22;39789;53.216;5.624;2024-01-30T07:59:34;7.90;99.90
53876;DHT22;39789;53.216;5.624;2024-01-30T08:02:00;7.90;99.90
53876;DHT22;39789;53.216;5.624;2024-01-30T08:04:25;8.70;99.90
53876;DHT22;39789;53.216;5.624;2024-01-30T08:06:51;8.20;99.90
53876;DHT22;39789;53.216;5.624;2024-01-30T08:09:17;8.00;99.90
53876;DHT22;39789;53.216;5.624;2024-01-30T08:11:43;8.10;99.90
53876;DHT22;39789;53.216;5.624;2024-01-30T08:14:09;8.10;99.90
53876;DHT22;39789;53.216;5.624;2024-01-30T08:16:34;8.40;99.90
53876;DHT22;39789;53.216;5.624;2024-01-30T08:19:00;8.20;99.90
53876;DHT22;39789;53.216;5.624;2024-01-30T08:21:26;8.50;99.90
53876;DHT22;39789;53.216;5.624;2024-01-30T08:23:52;8.50;99.90
53876;DHT22;39789;53.216;5.624;2024-01-30T08:26:18;9.20;99.90
53876;DHT22;39789;53.216;5.624;2024-01-30T08:28:43;8.50;99.90
53876;DHT22;39789;53.216;5.624;2024-01-30T08:31:10;8.80;99.90
53876;DHT22;39789;53.216;5.624;2024-01-30T08:33:37;8.80;99.90
53876;DHT22;39789;53.216;5.624;2024-01-30T08:36:03;8.50;99.90
53876;DHT22;39789;53.216;5.624;2024-01-30T08:38:28;8.40;99.90
53876;DHT22;39789;53.216;5.624;2024-01-30T08:40:55;9.00;99.90
53876;DHT22;39789;53.216;5.624;2024-01-30T08:43:20;8.80;99.90
53876;DHT22;39789;53.216;5.624;2024-01-30T08:45:46;8.70;99.90
53876;DHT22;39789;53.216;5.624;2024-01-30T08:48:12;8.70;99.90
53876;DHT22;39789;53.216;5.624;2024-01-30T08:50:38;8.70;99.90
53876;DHT22;39789;53.216;5.624;2024-01-30T08:53:04;9.10;99.90
53876;DHT22;39789;53.216;5.624;2024-01-30T08:55:29;8.80;99.90
53876;DHT22;39789;53.216;5.624;2024-01-30T08:57:55;8.90;99.90
53876;DHT22;39789;53.216;5.624;2024-01-30T09:00:20;8.90;99.90
53876;DHT22;39789;53.216;5.624;2024-01-30T09:02:46;9.00;99.90
53876;DHT22;39789;53.216;5.624;2024-01-30T09:05:12;9.10;99.90
53876;DHT22;39789;53.216;5.624;2024-01-30T09:07:38;9.10;99.90
53876;DHT22;39789;53.216;5.624;2024-01-30T09:10:04;9.10;99.90
53876;DHT22;39789;53.216;5.624;2024-01-30T09:12:29;9.10;99.90
53876;DHT22;39789;53.216;5.624;2024-01-30T09:14:55;10.00;99.90
53876;DHT22;39789;53.216;5.624;2024-01-30T09:17:21;9.20;99.90
53876;DHT22;39789;53.216;5.624;2024-01-30T09:19:48;9.30;99.90
53876;DHT22;39789;53.216;5.624;2024-01-30T09:22:13;9.20;99.90
53876;DHT22;39789;53.216;5.624;2024-01-30T09:24:40;9.20;99.90
53876;DHT22;39789;53.216;5.624;2024-01-30T09:27:06;9.20;99.90
53876;DHT22;39789;53.216;5.624;2024-01-30T09:29:31;9.20;99.90
53876;DHT22;39789;53.216;5.624;2024-01-30T09:31:59;9.20;99.90
53876;DHT22;39789;53.216;5.624;2024-01-30T09:34:25;9.90;99.90
53876;DHT22;39789;53.216;5.624;2024-01-30T09:36:51;9.20;99.90
53876;DHT22;39789;53.216;5.624;2024-01-30T09:39:16;9.20;99.90
53876;DHT22;39789;53.216;5.624;2024-01-30T09:41:49;9.20;99.90
53876;DHT22;39789;53.216;5.624;2024-01-30T09:44:20;9.10;99.90
53876;DHT22;39789;53.216;5.624;2024-01-30T09:46:47;9.70;99.90
53876;DHT22;39789;53.216;5.624;2024-01-30T09:49:15;9.20;99.90
53876;DHT22;39789;53.216;5.624;2024-01-30T09:51:44;9.20;99.90
53876;DHT22;39789;53.216;5.624;2024-01-30T09:54:10;9.20;99.90
53876;DHT22;39789;53.216;5.624;2024-01-30T09:56:39;9.80;99.90
53876;DHT22;39789;53.216;5.624;2024-01-30T09:59:04;9.10;99.90
53876;DHT22;39789;53.216;5.624;2024-01-30T10:01:31;9.20;99.90
53876;DHT22;39789;53.216;5.624;2024-01-30T10:03:57;9.10;99.90
53876;DHT22;39789;53.216;5.624;2024-01-30T10:06:24;9.10;99.90
53876;DHT22;39789;53.216;5.624;2024-01-30T10:08:50;9.10;99.90
53876;DHT22;39789;53.216;5.624;2024-01-30T10:11:16;9.10;99.90
53876;DHT22;39789;53.216;5.624;2024-01-30T10:13:41;9.10;99.90
53876;DHT22;39789;53.216;5.624;2024-01-30T10:16:07;9.20;99.90
53876;DHT22;39789;53.216;5.624;2024-01-30T10:18:33;9.40;99.90
53876;DHT22;39789;53.216;5.624;2024-01-30T10:20:59;9.00;99.90
53876;DHT22;39789;53.216;5.624;2024-01-30T10:23:25;9.20;99.90
53876;DHT22;39789;53.216;5.624;2024-01-30T10:25:54;9.70;99.90
53876;DHT22;39789;53.216;5.624;2024-01-30T10:28:19;9.10;99.90
53876;DHT22;39789;53.216;5.624;2024-01-30T10:30:47;9.40;99.90
53876;DHT22;39789;53.216;5.624;2024-01-30T10:33:22;9.10;99.90
53876;DHT22;39789;53.216;5.624;2024-01-30T10:35:49;9.10;99.90
53876;DHT22;39789;53.216;5.624;2024-01-30T10:38:17;9.10;99.90
53876;DHT22;39789;53.216;5.624;2024-01-30T10:40:45;9.10;99.90
53876;DHT22;39789;53.216;5.624;2024-01-30T10:43:14;9.10;99.90
53876;DHT22;39789;53.216;5.624;2024-01-30T10:45:45;9.10;99.90
53876;DHT22;39789;53.216;5.624;2024-01-30T10:48:13;9.10;99.90
53876;DHT22;39789;53.216;5.624;2024-01-30T10:50:40;9.10;99.90
53876;DHT22;39789;53.216;5.624;2024-01-30T10:53:08;9.70;99.90
53876;DHT22;39789;53.216;5.624;2024-01-30T10:55:34;9.70;99.90
53876;DHT22;39789;53.216;5.624;2024-01-30T10:58:02;9.10;99.90
53876;DHT22;39789;53.216;5.624;2024-01-30T11:00:28;9.10;99.90
53876;DHT22;39789;53.216;5.624;2024-01-30T11:02:54;9.10;99.90
53876;DHT22;39789;53.216;5.624;2024-01-30T11:05:24;9.10;99.90
53876;DHT22;39789;53.216;5.624;2024-01-30T11:07:52;9.20;99.90
53876;DHT22;39789;53.216;5.624;2024-01-30T11:10:18;9.20;99.90
53876;DHT22;39789;53.216;5.624;2024-01-30T11:12:46;9.20;99.90
53876;DHT22;39789;53.216;5.624;2024-01-30T11:15:16;9.30;99.90
53876;DHT22;39789;53.216;5.624;2024-01-30T11:20:27;9.20;99.90
53876;DHT22;39789;53.216;5.624;2024-01-30T11:22:55;9.30;99.90
53876;DHT22;39789;53.216;5.624;2024-01-30T11:25:22;9.20;99.90
53876;DHT22;39789;53.216;5.624;2024-01-30T11:27:51;9.20;99.90
53876;DHT22;39789;53.216;5.624;2024-01-30T11:30:27;9.10;99.90
53876;DHT22;39789;53.216;5.624;2024-01-30T11:33:45;9.00;99.90
53876;DHT22;39789;53.216;5.624;2024-01-30T11:35:46;9.00;99.90
53876;DHT22;39789;53.216;5.624;2024-01-30T11:38:16;8.90;99.90
53876;DHT22;39789;53.216;5.624;2024-01-30T11:40:43;9.20;99.90
53876;DHT22;39789;53.216;5.624;2024-01-30T11:43:09;9.70;99.90
53876;DHT22;39789;53.216;5.624;2024-01-30T11:45:36;9.00;99.90
53876;DHT22;39789;53.216;5.624;2024-01-30T11:48:02;9.10;99.90
53876;DHT22;39789;53.216;5.624;2024-01-30T11:50:33;9.00;99.90
53876;DHT22;39789;53.216;5.624;2024-01-30T11:53:00;9.50;99.90
53876;DHT22;39789;53.216;5.624;2024-01-30T11:55:26;9.10;99.90
53876;DHT22;39789;53.216;5.624;2024-01-30T11:57:55;9.10;99.90
53876;DHT22;39789;53.216;5.624;2024-01-30T12:00:21;9.40;99.90
53876;DHT22;39789;53.216;5.624;2024-01-30T12:02:54;9.10;99.90
53876;DHT22;39789;53.216;5.624;2024-01-30T12:05:24;9.10;99.90
53876;DHT22;39789;53.216;5.624;2024-01-30T12:07:50;9.20;99.90
53876;DHT22;39789;53.216;5.624;2024-01-30T12:10:16;9.90;99.90
53876;DHT22;39789;53.216;5.624;2024-01-30T12:12:46;9.20;99.90
53876;DHT22;39789;53.216;5.624;2024-01-30T12:15:12;9.20;99.90
53876;DHT22;39789;53.216;5.624;2024-01-30T12:17:38;9.10;99.90
53876;DHT22;39789;53.216;5.624;2024-01-30T12:22:38;9.10;99.90
53876;DHT22;39789;53.216;5.624;2024-01-30T12:25:08;9.10;99.90
53876;DHT22;39789;53.216;5.624;2024-01-30T12:27:35;9.10;99.90
53876;DHT22;39789;53.216;5.624;2024-01-30T12:30:01;9.50;99.90
53876;DHT22;39789;53.216;5.624;2024-01-30T12:32:27;9.10;99.90
53876;DHT22;39789;53.216;5.624;2024-01-30T12:34:56;9.10;99.90
53876;DHT22;39789;53.216;5.624;2024-01-30T12:37:22;9.10;99.90
53876;DHT22;39789;53.216;5.624;2024-01-30T12:39:52;9.10;99.90
53876;DHT22;39789;53.216;5.624;2024-01-30T12:42:20;9.10;99.90
53876;DHT22;39789;53.216;5.624;2024-01-30T12:44:49;9.40;99.90
53876;DHT22;39789;53.216;5.624;2024-01-30T12:47:15;9.30;99.90
53876;DHT22;39789;53.216;5.624;2024-01-30T12:49:44;9.70;99.90
53876;DHT22;39789;53.216;5.624;2024-01-30T12:52:11;9.00;99.90
53876;DHT22;39789;53.216;5.624;2024-01-30T12:54:37;9.00;99.90
53876;DHT22;39789;53.216;5.624;2024-01-30T12:57:04;9.00;99.90
53876;DHT22;39789;53.216;5.624;2024-01-30T12:59:30;9.00;99.90
53876;DHT22;39789;53.216;5.624;2024-01-30T13:01:56;9.00;99.90
53876;DHT22;39789;53.216;5.624;2024-01-30T13:04:22;9.00;99.90
53876;DHT22;39789;53.216;5.624;2024-01-30T13:06:48;9.00;99.90
53876;DHT22;39789;53.216;5.624;2024-01-30T13:09:14;9.00;99.90
53876;DHT22;39789;53.216;5.624;2024-01-30T13:11:40;9.20;99.90
53876;DHT22;39789;53.216;5.624;2024-01-30T13:14:05;9.10;99.90
53876;DHT22;39789;53.216;5.624;2024-01-30T13:16:31;9.70;99.90
53876;DHT22;39789;53.216;5.624;2024-01-30T13:18:57;9.00;99.90
53876;DHT22;39789;53.216;5.624;2024-01-30T13:21:22;9.30;99.90
53876;DHT22;39789;53.216;5.624;2024-01-30T13:23:48;9.00;99.90
53876;DHT22;39789;53.216;5.624;2024-01-30T13:26:18;9.10;99.90
53876;DHT22;39789;53.216;5.624;2024-01-30T13:28:44;9.00;99.90
53876;DHT22;39789;53.216;5.624;2024-01-30T13:31:09;9.00;99.90
53876;DHT22;39789;53.216;5.624;2024-01-30T13:33:35;9.00;99.90
53876;DHT22;39789;53.216;5.624;2024-01-30T13:36:01;8.90;99.90
53876;DHT22;39789;53.216;5.624;2024-01-30T13:38:27;9.00;99.90
53876;DHT22;39789;53.216;5.624;2024-01-30T13:40:52;9.00;99.90
53876;DHT22;39789;53.216;5.624;2024-01-30T13:43:18;10.00;99.90
53876;DHT22;39789;53.216;5.624;2024-01-30T13:45:44;9.00;99.90
53876;DHT22;39789;53.216;5.624;2024-01-30T13:48:10;9.80;99.90
53876;DHT22;39789;53.216;5.624;2024-01-30T13:50:36;9.90;99.90
53876;DHT22;39789;53.216;5.624;2024-01-30T13:53:02;9.00;99.90
53876;DHT22;39789;53.216;5.624;2024-01-30T13:55:29;8.90;99.90
53876;DHT22;39789;53.216;5.624;2024-01-30T13:57:54;8.90;99.90
53876;DHT22;39789;53.216;5.624;2024-01-30T14:00:21;8.90;99.90
53876;DHT22;39789;53.216;5.624;2024-01-30T14:02:48;9.40;99.90
53876;DHT22;39789;53.216;5.624;2024-01-30T14:05:14;8.90;99.90
53876;DHT22;39789;53.216;5.624;2024-01-30T14:07:40;9.00;99.90
53876;DHT22;39789;53.216;5.624;2024-01-30T14:10:09;8.90;99.90
53876;DHT22;39789;53.216;5.624;2024-01-30T14:12:36;8.80;99.90
53876;DHT22;39789;53.216;5.624;2024-01-30T14:15:02;8.90;99.90
53876;DHT22;39789;53.216;5.624;2024-01-30T14:17:28;8.80;99.90
53876;DHT22;39789;53.216;5.624;2024-01-30T14:19:53;9.10;99.90
53876;DHT22;39789;53.216;5.624;2024-01-30T14:22:19;8.80;99.90
53876;DHT22;39789;53.216;5.624;2024-01-30T14:24:45;8.80;99.90
53876;DHT22;39789;53.216;5.624;2024-01-30T14:27:10;8.70;99.90
53876;DHT22;39789;53.216;5.624;2024-01-30T14:29:36;8.70;99.90
53876;DHT22;39789;53.216;5.624;2024-01-30T14:32:02;8.70;99.90
53876;DHT22;39789;53.216;5.624;2024-01-30T14:34:29;8.70;99.90
53876;DHT22;39789;53.216;5.624;2024-01-30T14:36:55;8.60;99.90
53876;DHT22;39789;53.216;5.624;2024-01-30T14:39:21;8.70;99.90
53876;DHT22;39789;53.216;5.624;2024-01-30T14:41:46;9.00;99.90
53876;DHT22;39789;53.216;5.624;2024-01-30T14:44:12;8.70;99.90
53876;DHT22;39789;53.216;5.624;2024-01-30T14:46:39;8.60;99.90
53876;DHT22;39789;53.216;5.624;2024-01-30T14:49:05;8.90;99.90
53876;DHT22;39789;53.216;5.624;2024-01-30T14:51:32;9.20;99.90
53876;DHT22;39789;53.216;5.624;2024-01-30T14:53:59;8.90;99.90
53876;DHT22;39789;53.216;5.624;2024-01-30T14:56:25;9.10;99.90
53876;DHT22;39789;53.216;5.624;2024-01-30T14:58:51;8.40;99.90
53876;DHT22;39789;53.216;5.624;2024-01-30T15:01:16;8.40;99.90
53876;DHT22;39789;53.216;5.624;2024-01-30T15:03:45;8.40;99.90
53876;DHT22;39789;53.216;5.624;2024-01-30T15:06:14;9.30;99.90
53876;DHT22;39789;53.216;5.624;2024-01-30T15:08:40;8.30;99.90
53876;DHT22;39789;53.216;5.624;2024-01-30T15:11:05;8.30;99.90
53876;DHT22;39789;53.216;5.624;2024-01-30T15:13:31;9.00;99.90
53876;DHT22;39789;53.216;5.624;2024-01-30T15:15:57;9.20;99.90
53876;DHT22;39789;53.216;5.624;2024-01-30T15:18:23;9.20;99.90
53876;DHT22;39789;53.216;5.624;2024-01-30T15:20:49;8.70;99.90
53876;DHT22;39789;53.216;5.624;2024-01-30T15:23:15;8.10;99.90
53876;DHT22;39789;53.216;5.624;2024-01-30T15:25:42;9.20;99.90
53876;DHT22;39789;53.216;5.624;2024-01-30T15:28:07;8.70;99.90
53876;DHT22;39789;53.216;5.624;2024-01-30T15:30:35;8.60;99.90
53876;DHT22;39789;53.216;5.624;2024-01-30T15:33:00;8.00;99.90
53876;DHT22;39789;53.216;5.624;2024-01-30T15:35:27;8.30;99.90
53876;DHT22;39789;53.216;5.624;2024-01-30T15:37:53;8.90;99.90
53876;DHT22;39789;53.216;5.624;2024-01-30T15:40:19;8.80;99.90
53876;DHT22;39789;53.216;5.624;2024-01-30T15:42:44;8.50;99.90
53876;DHT22;39789;53.216;5.624;2024-01-30T15:45:10;8.60;99.90